createdAt,value
2023-03-01T00:00:16.190Z,92373.94
2023-03-01T00:02:48.516Z,92360.00
2023-03-01T00:05:20.810Z,92366.94
2023-03-01T00:07:53.629Z,92357.88
2023-03-01T00:10:26.834Z,92346.28
2023-03-01T00:12:59.146Z,92343.94
2023-03-01T00:15:31.556Z,92337.50
2023-03-01T00:18:03.847Z,92336.19
2023-03-01T00:20:36.414Z,92338.91
2023-03-01T00:23:08.718Z,92331.09
2023-03-01T00:25:42.929Z,92323.03
2023-03-01T00:28:15.283Z,92316.00
2023-03-01T00:30:48.877Z,92315.53
2023-03-01T00:33:21.332Z,92303.66
2023-03-01T00:35:53.781Z,92302.28
2023-03-01T00:38:26.084Z,92305.84
2023-03-01T00:41:05.053Z,92297.84
2023-03-01T00:43:37.860Z,92310.78
2023-03-01T00:46:12.137Z,92315.94
2023-03-01T00:48:44.965Z,92321.13
2023-03-01T00:51:19.623Z,92311.34
2023-03-01T00:53:52.876Z,92309.47
2023-03-01T00:56:26.608Z,92325.28
2023-03-01T00:58:59.103Z,92325.78
2023-03-01T01:01:32.209Z,92329.69
2023-03-01T01:04:09.789Z,92329.13
2023-03-01T01:06:44.955Z,92322.41
2023-03-01T01:09:18.492Z,92336.91
2023-03-01T01:11:52.018Z,92341.66
2023-03-01T01:14:24.993Z,92328.84
2023-03-01T01:16:57.831Z,92308.47
2023-03-01T01:19:30.360Z,92317.03
2023-03-01T01:22:03.576Z,92335.66
2023-03-01T01:24:36.153Z,92330.16
2023-03-01T01:27:09.223Z,92329.16
2023-03-01T01:29:42.272Z,92327.34
2023-03-01T01:32:14.857Z,92333.78
2023-03-01T01:34:47.203Z,92327.56
2023-03-01T01:37:19.519Z,92334.75
2023-03-01T01:39:51.786Z,92331.38
2023-03-01T01:42:24.771Z,92337.59
2023-03-01T01:45:33.114Z,92339.31
2023-03-01T01:48:11.586Z,92336.41
2023-03-01T01:50:45.309Z,92331.09
2023-03-01T01:53:20.039Z,92337.28
2023-03-01T01:55:57.236Z,92329.81
2023-03-01T01:58:31.277Z,92326.16
2023-03-01T02:01:04.747Z,92314.81
2023-03-01T02:03:42.524Z,92312.75
2023-03-01T02:06:20.124Z,92303.97
2023-03-01T02:08:53.683Z,92292.06
2023-03-01T02:11:27.838Z,92286.72
2023-03-01T02:14:01.469Z,92284.94
2023-03-01T02:16:34.636Z,92290.34
2023-03-01T02:19:08.376Z,92281.75
2023-03-01T02:21:53.768Z,92281.09
2023-03-01T02:24:34.200Z,92282.16
2023-03-01T02:27:08.064Z,92290.19
2023-03-01T02:29:44.234Z,92293.56
2023-03-01T02:32:25.425Z,92292.19
2023-03-01T02:34:58.060Z,92292.09
2023-03-01T02:37:30.326Z,92286.53
2023-03-01T02:40:07.100Z,92273.19
2023-03-01T02:42:48.263Z,92279.41
2023-03-01T02:45:21.835Z,92276.56
2023-03-01T02:47:55.169Z,92279.59
2023-03-01T02:50:53.196Z,92274.19
2023-03-01T02:53:35.573Z,92279.53
2023-03-01T02:56:13.230Z,92277.84
2023-03-01T02:58:51.214Z,92285.56
2023-03-01T03:01:36.594Z,92276.00
2023-03-01T03:04:17.896Z,92286.06
2023-03-01T03:06:52.458Z,92282.13
2023-03-01T03:09:24.768Z,92278.22
2023-03-01T03:11:57.101Z,92283.38
2023-03-01T03:14:29.750Z,92285.88
2023-03-01T03:17:06.883Z,92281.03
2023-03-01T03:19:39.158Z,92280.28
2023-03-01T03:22:11.544Z,92283.09
2023-03-01T03:24:43.853Z,92280.22
2023-03-01T03:27:16.156Z,92273.84
2023-03-01T03:29:48.476Z,92276.97
2023-03-01T03:32:21.589Z,92272.25
2023-03-01T03:34:53.885Z,92273.00
2023-03-01T03:37:44.424Z,92282.31
2023-03-01T03:40:16.902Z,92282.34
2023-03-01T03:42:49.365Z,92283.66
2023-03-01T03:45:21.802Z,92286.19
2023-03-01T03:47:54.794Z,92284.91
2023-03-01T03:50:27.240Z,92285.22
2023-03-01T03:53:01.479Z,92283.97
2023-03-01T03:55:34.340Z,92283.59
2023-03-01T03:58:08.390Z,92290.06
2023-03-01T04:00:44.478Z,92289.38
2023-03-01T04:03:18.996Z,92285.09
2023-03-01T04:05:52.144Z,92298.72
2023-03-01T04:08:24.501Z,92289.09
2023-03-01T04:11:22.840Z,92295.69
2023-03-01T04:13:57.434Z,92293.91
2023-03-01T04:16:30.159Z,92297.53
2023-03-01T04:19:03.718Z,92297.41
2023-03-01T04:21:36.784Z,92303.13
2023-03-01T04:24:09.927Z,92297.97
2023-03-01T04:26:42.248Z,92305.19
2023-03-01T04:29:14.621Z,92300.56
2023-03-01T04:31:49.619Z,92306.53
2023-03-01T04:34:22.691Z,92292.44
2023-03-01T04:36:55.255Z,92292.03
2023-03-01T04:39:27.594Z,92286.28
2023-03-01T04:41:59.891Z,92285.31
2023-03-01T04:44:32.172Z,92293.22
2023-03-01T04:47:04.549Z,92285.09
2023-03-01T04:49:37.502Z,92286.94
2023-03-01T04:52:09.845Z,92286.16
2023-03-01T04:54:43.446Z,92288.47
2023-03-01T04:57:15.715Z,92292.03
2023-03-01T04:59:47.988Z,92291.44
2023-03-01T05:02:20.255Z,92290.44
2023-03-01T05:04:57.826Z,92289.44
2023-03-01T05:07:30.075Z,92293.97
2023-03-01T05:10:02.307Z,92305.34
2023-03-01T05:12:34.621Z,92299.72
2023-03-01T05:15:08.037Z,92311.66
2023-03-01T05:17:40.322Z,92301.56
2023-03-01T05:20:13.676Z,92308.06
2023-03-01T05:22:45.953Z,92316.59
2023-03-01T05:25:18.459Z,92307.81
2023-03-01T05:27:51.107Z,92307.03
2023-03-01T05:30:23.408Z,92309.66
2023-03-01T05:32:55.925Z,92311.50
2023-03-01T05:35:29.808Z,92308.75
2023-03-01T05:38:02.188Z,92314.03
2023-03-01T05:40:35.154Z,92316.88
2023-03-01T05:43:07.531Z,92314.53
2023-03-01T05:45:40.865Z,92317.34
2023-03-01T05:48:13.978Z,92320.94
2023-03-01T05:50:47.506Z,92324.09
2023-03-01T05:53:21.414Z,92332.91
2023-03-01T05:55:53.718Z,92326.19
2023-03-01T05:58:26.046Z,92334.41
2023-03-01T06:00:58.417Z,92333.94
2023-03-01T06:03:30.654Z,92343.22
2023-03-01T06:06:03.960Z,92350.38
2023-03-01T06:08:36.227Z,92357.44
2023-03-01T06:11:08.535Z,92362.09
2023-03-01T06:13:42.358Z,92366.00
2023-03-01T06:16:15.361Z,92366.19
2023-03-01T06:18:47.682Z,92358.47
2023-03-01T06:21:20.706Z,92367.94
2023-03-01T06:23:53.079Z,92366.09
2023-03-01T06:26:25.393Z,92375.72
2023-03-01T06:28:57.666Z,92369.31
2023-03-01T06:31:29.945Z,92371.84
2023-03-01T06:34:02.321Z,92367.25
2023-03-01T06:36:35.239Z,92367.66
2023-03-01T06:39:07.833Z,92363.81
2023-03-01T06:41:40.188Z,92370.28
2023-03-01T06:44:12.501Z,92364.34
2023-03-01T06:46:44.839Z,92372.34
2023-03-01T06:49:18.089Z,92370.16
2023-03-01T06:51:51.135Z,92376.25
2023-03-01T06:54:23.781Z,92377.84
2023-03-01T06:56:56.086Z,92375.25
2023-03-01T06:59:28.553Z,92378.94
2023-03-01T07:02:00.860Z,92368.91
2023-03-01T07:04:33.222Z,92378.47
2023-03-01T07:07:06.448Z,92381.56
2023-03-01T07:09:38.789Z,92379.50
2023-03-01T07:12:11.205Z,92373.53
2023-03-01T07:14:44.940Z,92375.72
2023-03-01T07:17:17.230Z,92371.13
2023-03-01T07:19:49.490Z,92369.56
2023-03-01T07:22:22.458Z,92363.09
2023-03-01T07:24:54.762Z,92368.53
2023-03-01T07:27:27.052Z,92363.38
2023-03-01T07:29:59.333Z,92364.38
2023-03-01T07:32:31.772Z,92365.72
2023-03-01T07:35:04.574Z,92374.69
2023-03-01T07:37:37.597Z,92375.28
2023-03-01T07:40:10.899Z,92372.50
2023-03-01T07:42:43.297Z,92368.25
2023-03-01T07:45:15.658Z,92364.22
2023-03-01T07:47:47.922Z,92367.53
2023-03-01T07:50:20.694Z,92359.59
2023-03-01T07:52:53.758Z,92365.31
2023-03-01T07:55:26.155Z,92357.56
2023-03-01T07:57:58.537Z,92361.72
2023-03-01T08:00:31.007Z,92354.00
2023-03-01T08:03:03.590Z,92352.25
2023-03-01T08:05:36.010Z,92351.78
2023-03-01T08:08:09.010Z,92353.81
2023-03-01T08:10:41.469Z,92346.84
2023-03-01T08:13:13.888Z,92351.00
2023-03-01T08:15:46.316Z,92341.22
2023-03-01T08:18:20.242Z,92350.63
2023-03-01T08:20:52.632Z,92345.28
2023-03-01T08:23:25.921Z,92355.34
2023-03-01T08:26:05.199Z,92354.09
2023-03-01T08:28:37.755Z,92356.16
2023-03-01T08:31:18.733Z,92352.03
2023-03-01T08:33:55.735Z,92352.56
2023-03-01T08:36:30.444Z,92346.84
2023-03-01T08:39:04.000Z,92357.19
2023-03-01T08:41:36.754Z,92348.47
2023-03-01T08:44:11.189Z,92348.75
2023-03-01T08:46:45.768Z,92350.28
2023-03-01T08:49:19.758Z,92348.47
2023-03-01T08:51:52.156Z,92353.63
2023-03-01T08:54:25.281Z,92358.63
2023-03-01T08:56:59.340Z,92350.06
2023-03-01T08:59:35.976Z,92344.44
2023-03-01T09:02:13.326Z,92346.44
2023-03-01T09:04:45.875Z,92344.44
2023-03-01T09:07:18.256Z,92343.72
2023-03-01T09:09:53.654Z,92352.75
2023-03-01T09:12:26.153Z,92346.56
2023-03-01T09:14:58.627Z,92344.28
2023-03-01T09:17:31.094Z,92332.88
2023-03-01T09:20:05.980Z,92340.69
2023-03-01T09:22:38.363Z,92331.66
2023-03-01T09:25:11.539Z,92334.47
2023-03-01T09:27:43.946Z,92332.16
2023-03-01T09:30:16.936Z,92335.78
2023-03-01T09:32:49.355Z,92332.91
2023-03-01T09:35:22.991Z,92317.44
2023-03-01T09:37:55.500Z,92322.13
2023-03-01T09:40:35.858Z,92287.41
2023-03-01T09:43:20.509Z,92326.25
2023-03-01T09:45:55.611Z,92330.34
2023-03-01T09:48:33.906Z,92318.97
2023-03-01T09:51:13.221Z,92318.47
2023-03-01T09:53:45.767Z,92311.75
2023-03-01T09:56:23.514Z,92295.69
2023-03-01T09:59:03.029Z,92309.69
2023-03-01T10:01:39.310Z,92303.47
2023-03-01T10:04:28.583Z,92303.22
2023-03-01T10:07:15.114Z,92306.59
2023-03-01T10:09:48.392Z,92298.53
2023-03-01T10:12:26.113Z,92300.34
2023-03-01T10:15:03.265Z,92296.72
2023-03-01T10:17:38.264Z,92288.19
2023-03-01T10:20:21.938Z,92299.06
2023-03-01T10:22:55.539Z,92292.88
2023-03-01T10:25:43.938Z,92296.72
2023-03-01T10:28:25.327Z,92298.56
2023-03-01T10:30:59.688Z,92286.91
2023-03-01T10:33:36.141Z,92293.63
2023-03-01T10:36:09.000Z,92292.09
2023-03-01T10:38:55.318Z,92292.34
2023-03-01T10:41:28.074Z,92285.34
2023-03-01T10:44:01.386Z,92294.66
2023-03-01T10:46:35.320Z,92290.78
2023-03-01T10:49:15.577Z,92284.84
2023-03-01T10:51:50.264Z,92281.47
2023-03-01T10:54:28.064Z,92289.47
2023-03-01T10:57:03.344Z,92290.03
2023-03-01T10:59:38.156Z,92287.41
2023-03-01T11:02:25.056Z,92303.72
2023-03-01T11:05:03.245Z,92297.78
2023-03-01T11:07:48.264Z,92294.16
2023-03-01T11:10:23.348Z,92289.50
2023-03-01T11:13:07.918Z,92296.72
2023-03-01T11:15:41.081Z,92293.38
2023-03-01T11:18:26.612Z,92294.44
2023-03-01T11:21:06.670Z,92284.81
2023-03-01T11:23:40.682Z,92293.09
2023-03-01T11:26:15.750Z,92284.81
2023-03-01T11:28:54.727Z,92273.41
2023-03-01T11:31:29.770Z,92279.09
2023-03-01T11:34:11.145Z,92269.28
2023-03-01T11:36:48.869Z,92261.50
2023-03-01T11:39:29.533Z,92257.91
2023-03-01T11:42:18.450Z,92247.53
2023-03-01T11:44:55.266Z,92246.00
2023-03-01T11:47:55.012Z,92244.94
2023-03-01T11:50:40.587Z,92238.19
2023-03-01T11:53:46.027Z,92233.28
2023-03-01T11:56:29.710Z,92237.66
2023-03-01T11:59:21.245Z,92231.44
2023-03-01T12:02:12.912Z,92239.22
2023-03-01T12:05:01.857Z,92228.34
2023-03-01T12:07:46.353Z,92229.41
2023-03-01T12:10:26.765Z,92229.88
2023-03-01T12:13:23.824Z,92226.53
2023-03-01T12:16:17.622Z,92226.53
2023-03-01T12:19:25.783Z,92232.22
2023-03-01T12:22:31.523Z,92226.00
2023-03-01T12:25:26.961Z,92227.06
2023-03-01T12:28:20.505Z,92224.44
2023-03-01T12:31:12.760Z,92222.91
2023-03-01T12:33:53.452Z,92228.84
2023-03-01T12:36:40.193Z,92221.63
2023-03-01T12:39:29.860Z,92219.75
2023-03-01T12:42:13.005Z,92218.72
2023-03-01T12:45:11.858Z,92213.50
2023-03-01T12:47:56.824Z,92215.56
2023-03-01T12:50:41.195Z,92214.25
2023-03-01T12:53:23.443Z,92217.28
2023-03-01T12:56:01.452Z,92217.81
2023-03-01T12:58:48.849Z,92225.84
2023-03-01T13:01:32.996Z,92227.38
2023-03-01T13:04:36.847Z,92227.84
2023-03-01T13:07:30.019Z,92223.50
2023-03-01T13:10:16.733Z,92230.00
2023-03-01T13:13:02.873Z,92233.59
2023-03-01T13:15:36.762Z,92227.84
2023-03-01T13:18:29.281Z,92233.38
2023-03-01T13:21:03.777Z,92233.66
2023-03-01T13:23:38.630Z,92231.63
2023-03-01T13:26:14.631Z,92235.53
2023-03-01T13:28:53.253Z,92237.06
2023-03-01T13:32:01.942Z,92227.75
2023-03-01T13:34:42.562Z,92231.66
2023-03-01T13:37:26.502Z,92236.63
2023-03-01T13:40:04.880Z,92235.31
2023-03-01T13:42:40.616Z,92223.66
2023-03-01T13:45:33.557Z,92219.25
2023-03-01T13:48:11.687Z,92223.63
2023-03-01T13:50:48.671Z,92225.44
2023-03-01T13:53:24.284Z,92215.06
2023-03-01T13:55:59.909Z,92214.56
2023-03-01T13:58:44.192Z,92215.38
2023-03-01T14:01:26.027Z,92214.34
2023-03-01T14:03:59.424Z,92198.53
2023-03-01T14:06:35.994Z,92206.06
2023-03-01T14:09:17.065Z,92200.09
2023-03-01T14:12:16.103Z,92197.25
2023-03-01T14:14:56.753Z,92197.75
2023-03-01T14:17:59.725Z,92202.16
2023-03-01T14:20:38.141Z,92207.03
2023-03-01T14:23:14.478Z,92199.28
2023-03-01T14:25:49.516Z,92193.91
2023-03-01T14:28:26.615Z,92195.16
2023-03-01T14:31:00.895Z,92194.94
2023-03-01T14:33:36.594Z,92193.38
2023-03-01T14:36:11.755Z,92205.84
2023-03-01T14:38:46.040Z,92203.53
2023-03-01T14:41:20.377Z,92199.88
2023-03-01T14:43:58.294Z,92190.81
2023-03-01T14:46:34.215Z,92185.94
2023-03-01T14:49:12.033Z,92174.53
2023-03-01T14:51:57.893Z,92175.59
2023-03-01T14:54:40.382Z,92181.28
2023-03-01T14:57:16.465Z,92174.81
2023-03-01T14:59:51.014Z,92177.16
2023-03-01T15:02:25.488Z,92173.56
2023-03-01T15:05:01.148Z,92176.69
2023-03-01T15:07:37.483Z,92177.19
2023-03-01T15:10:20.278Z,92187.28
2023-03-01T15:12:53.615Z,92184.69
2023-03-01T15:15:36.017Z,92181.09
2023-03-01T15:18:17.506Z,92187.53
2023-03-01T15:20:51.603Z,92191.97
2023-03-01T15:23:26.047Z,92190.66
2023-03-01T15:25:59.095Z,92195.56
2023-03-01T15:28:34.009Z,92197.13
2023-03-01T15:31:19.754Z,92176.16
2023-03-01T15:33:52.680Z,92176.44
2023-03-01T15:36:37.308Z,92178.72
2023-03-01T15:39:31.364Z,92181.84
2023-03-01T15:42:05.254Z,92186.22
2023-03-01T15:44:43.776Z,92187.25
2023-03-01T15:47:31.300Z,92175.63
2023-03-01T15:50:04.099Z,92180.25
2023-03-01T15:52:41.801Z,92173.78
2023-03-01T15:55:18.005Z,92172.75
2023-03-01T15:57:58.110Z,92175.34
2023-03-01T16:00:30.796Z,92174.81
2023-03-01T16:03:03.228Z,92178.41
2023-03-01T16:05:36.504Z,92180.78
2023-03-01T16:08:09.750Z,92184.09
2023-03-01T16:10:43.987Z,92180.75
2023-03-01T16:13:17.521Z,92181.78
2023-03-01T16:15:49.917Z,92173.00
2023-03-01T16:18:22.572Z,92182.03
2023-03-01T16:20:54.950Z,92180.19
2023-03-01T16:23:27.902Z,92180.19
2023-03-01T16:26:01.046Z,92174.50
2023-03-01T16:28:33.370Z,92172.47
2023-03-01T16:31:06.008Z,92175.03
2023-03-01T16:33:39.003Z,92175.03
2023-03-01T16:36:12.688Z,92173.47
2023-03-01T16:38:46.199Z,92164.66
2023-03-01T16:41:23.802Z,92157.94
2023-03-01T16:43:56.121Z,92165.41
2023-03-01T16:46:29.650Z,92167.47
2023-03-01T16:49:03.272Z,92167.19
2023-03-01T16:51:36.601Z,92170.03
2023-03-01T16:54:11.164Z,92164.09
2023-03-01T16:56:43.469Z,92172.34
2023-03-01T16:59:15.809Z,92165.63
2023-03-01T17:01:48.209Z,92173.66
2023-03-01T17:04:20.557Z,92172.91
2023-03-01T17:06:52.965Z,92174.75
2023-03-01T17:09:26.005Z,92174.97
2023-03-01T17:11:58.417Z,92189.19
2023-03-01T17:14:30.785Z,92179.66
2023-03-01T17:17:03.206Z,92182.78
2023-03-01T17:19:39.938Z,92189.53
2023-03-01T17:22:13.839Z,92184.63
2023-03-01T17:24:46.844Z,92189.28
2023-03-01T17:27:19.249Z,92192.63
2023-03-01T17:29:51.638Z,92186.44
2023-03-01T17:32:24.258Z,92196.75
2023-03-01T17:34:56.706Z,92196.72
2023-03-01T17:37:29.170Z,92200.09
2023-03-01T17:40:03.055Z,92205.28
2023-03-01T17:42:35.455Z,92202.19
2023-03-01T17:45:08.376Z,92202.44
2023-03-01T17:47:40.758Z,92197.56
2023-03-01T17:50:13.256Z,92206.06
2023-03-01T17:52:45.673Z,92210.22
2023-03-01T17:55:18.949Z,92201.97
2023-03-01T17:57:51.573Z,92207.13
2023-03-01T18:00:24.738Z,92212.81
2023-03-01T18:02:57.243Z,92214.63
2023-03-01T18:05:32.625Z,92216.19
2023-03-01T18:08:05.328Z,92209.75
2023-03-01T18:10:38.382Z,92212.06
2023-03-01T18:13:14.284Z,92207.16
2023-03-01T18:15:46.643Z,92206.13
2023-03-01T18:18:19.080Z,92204.31
2023-03-01T18:20:55.842Z,92205.31
2023-03-01T18:23:30.036Z,92206.91
2023-03-01T18:26:05.928Z,92195.53
2023-03-01T18:28:39.330Z,92202.75
2023-03-01T18:31:11.793Z,92204.06
2023-03-01T18:33:45.231Z,92210.53
2023-03-01T18:36:19.861Z,92216.75
2023-03-01T18:38:53.053Z,92216.72
2023-03-01T18:41:27.870Z,92235.06
2023-03-01T18:44:02.046Z,92223.94
2023-03-01T18:46:37.920Z,92234.81
2023-03-01T18:49:10.646Z,92232.00
2023-03-01T18:51:43.577Z,92229.44
2023-03-01T18:54:16.506Z,92225.28
2023-03-01T18:56:49.512Z,92221.94
2023-03-01T18:59:22.014Z,92219.81
2023-03-01T19:01:54.416Z,92224.75
2023-03-01T19:04:26.936Z,92230.44
2023-03-01T19:07:01.427Z,92226.84
2023-03-01T19:09:34.284Z,92222.69
2023-03-01T19:12:07.549Z,92209.97
2023-03-01T19:14:39.975Z,92223.94
2023-03-01T19:17:12.304Z,92232.94
2023-03-01T19:19:45.949Z,92232.16
2023-03-01T19:22:19.227Z,92231.69
2023-03-01T19:24:51.566Z,92240.75
2023-03-01T19:27:24.616Z,92244.63
2023-03-01T19:29:57.021Z,92238.66
2023-03-01T19:32:29.415Z,92239.97
2023-03-01T19:35:01.915Z,92245.16
2023-03-01T19:37:34.412Z,92244.66
2023-03-01T19:40:08.507Z,92248.78
2023-03-01T19:42:41.509Z,92246.66
2023-03-01T19:45:14.735Z,92251.88
2023-03-01T19:47:48.400Z,92254.44
2023-03-01T19:50:20.837Z,92245.34
2023-03-01T19:52:53.420Z,92243.81
2023-03-01T19:55:25.944Z,92242.00
2023-03-01T19:57:58.956Z,92247.41
2023-03-01T20:00:31.380Z,92248.19
2023-03-01T20:03:03.984Z,92257.50
2023-03-01T20:05:37.216Z,92257.00
2023-03-01T20:08:09.977Z,92276.66
2023-03-01T20:10:43.403Z,92274.56
2023-03-01T20:13:20.577Z,92273.25
2023-03-01T20:15:55.998Z,92266.06
2023-03-01T20:18:28.615Z,92273.75
2023-03-01T20:21:01.799Z,92275.81
2023-03-01T20:23:35.661Z,92269.91
2023-03-01T20:26:14.366Z,92262.91
2023-03-01T20:28:49.173Z,92264.44
2023-03-01T20:31:28.699Z,92268.03
2023-03-01T20:34:01.674Z,92258.72
2023-03-01T20:36:35.151Z,92260.44
2023-03-01T20:39:11.013Z,92269.72
2023-03-01T20:41:43.536Z,92274.84
2023-03-01T20:44:16.592Z,92265.28
2023-03-01T20:46:50.063Z,92264.72
2023-03-01T20:49:22.581Z,92264.16
2023-03-01T20:51:54.917Z,92267.00
2023-03-01T20:54:27.598Z,92268.84
2023-03-01T20:56:59.936Z,92268.56
2023-03-01T20:59:34.267Z,92267.28
2023-03-01T21:02:07.112Z,92262.38
2023-03-01T21:04:39.659Z,92267.03
2023-03-01T21:07:12.265Z,92267.50
2023-03-01T21:09:44.833Z,92271.59
2023-03-01T21:12:18.047Z,92264.31
2023-03-01T21:14:51.112Z,92258.06
2023-03-01T21:17:23.472Z,92260.66
2023-03-01T21:19:55.813Z,92260.16
2023-03-01T21:22:28.494Z,92269.69
2023-03-01T21:25:01.071Z,92266.28
2023-03-01T21:27:36.451Z,92268.06
2023-03-01T21:30:11.157Z,92272.00
2023-03-01T21:32:43.751Z,92270.41
2023-03-01T21:35:16.388Z,92271.16
2023-03-01T21:37:48.750Z,92268.91
2023-03-01T21:40:21.061Z,92261.63
2023-03-01T21:42:53.359Z,92265.84
2023-03-01T21:45:26.410Z,92255.53
2023-03-01T21:47:58.788Z,92256.31
2023-03-01T21:50:31.162Z,92253.81
2023-03-01T21:53:04.609Z,92264.41
2023-03-01T21:55:36.986Z,92259.22
2023-03-01T21:58:09.317Z,92250.16
2023-03-01T22:00:42.403Z,92256.38
2023-03-01T22:03:15.538Z,92261.50
2023-03-01T22:05:54.280Z,92249.41
2023-03-01T22:08:27.734Z,92264.41
2023-03-01T22:11:02.056Z,92267.53
2023-03-01T22:13:34.392Z,92260.53
2023-03-01T22:16:07.837Z,92265.66
2023-03-01T22:18:40.237Z,92268.47
2023-03-01T22:21:12.757Z,92271.59
2023-03-01T22:23:45.667Z,92268.03
2023-03-01T22:26:22.512Z,92262.34
2023-03-01T22:28:56.553Z,92248.63
2023-03-01T22:31:30.235Z,92263.88
2023-03-01T22:34:03.084Z,92259.94
2023-03-01T22:36:35.848Z,92258.19
2023-03-01T22:39:08.492Z,92248.63
2023-03-01T22:41:43.496Z,92254.59
2023-03-01T22:44:18.278Z,92249.13
2023-03-01T22:46:52.228Z,92255.81
2023-03-01T22:49:24.623Z,92254.25
2023-03-01T22:51:56.920Z,92243.94
2023-03-01T22:54:29.237Z,92238.22
2023-03-01T22:57:02.968Z,92232.50
2023-03-01T22:59:35.518Z,92233.09
2023-03-01T23:02:08.721Z,92242.91
2023-03-01T23:04:41.750Z,92243.44
2023-03-01T23:07:14.410Z,92241.34
2023-03-01T23:09:46.704Z,92242.91
2023-03-01T23:12:19.144Z,92242.81
2023-03-01T23:14:51.702Z,92241.78
2023-03-01T23:17:24.906Z,92251.91
2023-03-01T23:19:57.237Z,92253.97
2023-03-01T23:22:30.823Z,92249.81
2023-03-01T23:25:03.580Z,92251.34
2023-03-01T23:27:36.611Z,92254.69
2023-03-01T23:30:09.891Z,92248.25
2023-03-01T23:32:43.016Z,92254.16
2023-03-01T23:35:15.778Z,92242.06
2023-03-01T23:37:48.206Z,92246.44
2023-03-01T23:40:20.536Z,92247.94
2023-03-01T23:42:52.988Z,92247.19
2023-03-01T23:45:25.350Z,92243.72
2023-03-01T23:47:58.455Z,92250.19
2023-03-01T23:50:30.717Z,92252.78
2023-03-01T23:53:03.145Z,92244.72
2023-03-01T23:55:37.669Z,92246.59
2023-03-01T23:58:09.955Z,92242.22
